sensor_id;sensor_type;location;lat;lon;timestamp;P1;durP1;ratioP1;P2;durP2;ratioP2
22939;SDS011;11636;52.086;5.090;2023-03-29T00:01:14;4.07;;;2.00;;
22939;SDS011;11636;52.086;5.090;2023-03-29T00:04:02;5.10;;;2.20;;
22939;SDS011;11636;52.086;5.090;2023-03-29T00:06:30;5.03;;;2.15;;
22939;SDS011;11636;52.086;5.090;2023-03-29T00:09:04;3.50;;;1.77;;
22939;SDS011;11636;52.086;5.090;2023-03-29T00:11:38;5.57;;;2.67;;
22939;SDS011;11636;52.086;5.090;2023-03-29T00:14:12;6.97;;;2.70;;
22939;SDS011;11636;52.086;5.090;2023-03-29T00:16:46;6.05;;;2.40;;
22939;SDS011;11636;52.086;5.090;2023-03-29T00:19:14;4.22;;;2.38;;
22939;SDS011;11636;52.086;5.090;2023-03-29T00:21:51;3.72;;;2.20;;
22939;SDS011;11636;52.086;5.090;2023-03-29T00:24:24;5.53;;;2.10;;
22939;SDS011;11636;52.086;5.090;2023-03-29T00:26:57;4.43;;;2.30;;
22939;SDS011;11636;52.086;5.090;2023-03-29T00:29:24;4.90;;;2.55;;
22939;SDS011;11636;52.086;5.090;2023-03-29T00:31:58;4.60;;;2.35;;
22939;SDS011;11636;52.086;5.090;2023-03-29T00:34:25;6.20;;;2.85;;
22939;SDS011;11636;52.086;5.090;2023-03-29T00:37:08;7.00;;;2.72;;
22939;SDS011;11636;52.086;5.090;2023-03-29T00:39:35;5.28;;;2.30;;
22939;SDS011;11636;52.086;5.090;2023-03-29T00:42:02;3.97;;;2.13;;
22939;SDS011;11636;52.086;5.090;2023-03-29T00:47:18;5.75;;;2.58;;
22939;SDS011;11636;52.086;5.090;2023-03-29T00:49:59;5.05;;;2.50;;
22939;SDS011;11636;52.086;5.090;2023-03-29T00:52:31;7.18;;;2.88;;
22939;SDS011;11636;52.086;5.090;2023-03-29T00:55:07;5.15;;;2.38;;
22939;SDS011;11636;52.086;5.090;2023-03-29T00:57:47;4.28;;;2.45;;
22939;SDS011;11636;52.086;5.090;2023-03-29T01:00:25;4.88;;;2.47;;
22939;SDS011;11636;52.086;5.090;2023-03-29T01:02:57;6.40;;;2.63;;
22939;SDS011;11636;52.086;5.090;2023-03-29T01:05:35;6.13;;;2.85;;
22939;SDS011;11636;52.086;5.090;2023-03-29T01:08:09;5.82;;;2.33;;
22939;SDS011;11636;52.086;5.090;2023-03-29T01:13:27;5.35;;;2.47;;
22939;SDS011;11636;52.086;5.090;2023-03-29T01:16:11;4.72;;;2.38;;
22939;SDS011;11636;52.086;5.090;2023-03-29T01:18:46;6.60;;;2.85;;
22939;SDS011;11636;52.086;5.090;2023-03-29T01:29:59;6.95;;;2.85;;
22939;SDS011;11636;52.086;5.090;2023-03-29T01:32:38;6.00;;;2.60;;
22939;SDS011;11636;52.086;5.090;2023-03-29T01:37:44;5.38;;;2.55;;
22939;SDS011;11636;52.086;5.090;2023-03-29T01:40:22;4.93;;;2.67;;
22939;SDS011;11636;52.086;5.090;2023-03-29T01:43:03;5.90;;;2.42;;
22939;SDS011;11636;52.086;5.090;2023-03-29T01:45:44;4.57;;;2.30;;
22939;SDS011;11636;52.086;5.090;2023-03-29T01:48:24;6.35;;;2.95;;
22939;SDS011;11636;52.086;5.090;2023-03-29T01:50:53;4.78;;;2.70;;
22939;SDS011;11636;52.086;5.090;2023-03-29T01:56:42;4.05;;;2.50;;
22939;SDS011;11636;52.086;5.090;2023-03-29T01:59:21;4.13;;;2.40;;
22939;SDS011;11636;52.086;5.090;2023-03-29T02:01:55;5.70;;;2.67;;
22939;SDS011;11636;52.086;5.090;2023-03-29T02:04:38;5.25;;;2.63;;
22939;SDS011;11636;52.086;5.090;2023-03-29T02:07:21;5.72;;;3.28;;
22939;SDS011;11636;52.086;5.090;2023-03-29T02:09:51;4.90;;;2.80;;
22939;SDS011;11636;52.086;5.090;2023-03-29T02:12:25;6.30;;;3.00;;
22939;SDS011;11636;52.086;5.090;2023-03-29T02:14:52;5.47;;;3.00;;
22939;SDS011;11636;52.086;5.090;2023-03-29T02:17:28;4.65;;;3.10;;
22939;SDS011;11636;52.086;5.090;2023-03-29T02:20:01;4.97;;;2.40;;
22939;SDS011;11636;52.086;5.090;2023-03-29T02:25:29;3.65;;;2.55;;
22939;SDS011;11636;52.086;5.090;2023-03-29T02:28:04;4.38;;;2.50;;
22939;SDS011;11636;52.086;5.090;2023-03-29T02:30:34;4.53;;;2.60;;
22939;SDS011;11636;52.086;5.090;2023-03-29T02:33:32;4.85;;;2.50;;
22939;SDS011;11636;52.086;5.090;2023-03-29T02:36:09;4.35;;;2.47;;
22939;SDS011;11636;52.086;5.090;2023-03-29T02:38:50;5.43;;;2.70;;
22939;SDS011;11636;52.086;5.090;2023-03-29T02:41:18;3.90;;;2.40;;
22939;SDS011;11636;52.086;5.090;2023-03-29T02:43:52;5.82;;;3.17;;
22939;SDS011;11636;52.086;5.090;2023-03-29T02:46:27;5.43;;;3.08;;
22939;SDS011;11636;52.086;5.090;2023-03-29T02:49:02;6.10;;;3.28;;
22939;SDS011;11636;52.086;5.090;2023-03-29T02:51:31;4.53;;;2.38;;
22939;SDS011;11636;52.086;5.090;2023-03-29T02:54:16;5.65;;;2.83;;
22939;SDS011;11636;52.086;5.090;2023-03-29T02:56:49;4.65;;;2.65;;
22939;SDS011;11636;52.086;5.090;2023-03-29T02:59:28;5.65;;;3.60;;
22939;SDS011;11636;52.086;5.090;2023-03-29T03:01:55;6.10;;;2.95;;
22939;SDS011;11636;52.086;5.090;2023-03-29T03:04:22;5.55;;;2.88;;
22939;SDS011;11636;52.086;5.090;2023-03-29T03:06:57;5.38;;;2.95;;
22939;SDS011;11636;52.086;5.090;2023-03-29T03:09:23;4.75;;;2.75;;
22939;SDS011;11636;52.086;5.090;2023-03-29T03:11:57;6.88;;;3.25;;
22939;SDS011;11636;52.086;5.090;2023-03-29T03:14:36;4.80;;;2.70;;
22939;SDS011;11636;52.086;5.090;2023-03-29T03:17:03;4.57;;;2.78;;
22939;SDS011;11636;52.086;5.090;2023-03-29T03:19:37;5.05;;;2.60;;
22939;SDS011;11636;52.086;5.090;2023-03-29T03:22:11;5.72;;;3.05;;
22939;SDS011;11636;52.086;5.090;2023-03-29T03:24:41;5.05;;;2.90;;
22939;SDS011;11636;52.086;5.090;2023-03-29T03:27:15;4.35;;;2.55;;
22939;SDS011;11636;52.086;5.090;2023-03-29T03:29:41;5.25;;;3.00;;
22939;SDS011;11636;52.086;5.090;2023-03-29T03:32:09;4.28;;;2.90;;
22939;SDS011;11636;52.086;5.090;2023-03-29T03:34:43;5.38;;;2.78;;
22939;SDS011;11636;52.086;5.090;2023-03-29T03:37:10;5.38;;;2.92;;
22939;SDS011;11636;52.086;5.090;2023-03-29T03:39:44;4.53;;;2.80;;
22939;SDS011;11636;52.086;5.090;2023-03-29T03:42:19;5.15;;;3.40;;
22939;SDS011;11636;52.086;5.090;2023-03-29T03:44:46;5.53;;;3.15;;
22939;SDS011;11636;52.086;5.090;2023-03-29T03:47:20;5.97;;;3.55;;
22939;SDS011;11636;52.086;5.090;2023-03-29T03:49:53;5.35;;;3.10;;
22939;SDS011;11636;52.086;5.090;2023-03-29T03:52:27;6.22;;;3.60;;
22939;SDS011;11636;52.086;5.090;2023-03-29T03:55:01;5.60;;;2.90;;
22939;SDS011;11636;52.086;5.090;2023-03-29T03:57:35;4.50;;;2.70;;
22939;SDS011;11636;52.086;5.090;2023-03-29T04:00:05;5.22;;;2.80;;
22939;SDS011;11636;52.086;5.090;2023-03-29T04:02:54;4.88;;;2.97;;
22939;SDS011;11636;52.086;5.090;2023-03-29T04:05:22;5.30;;;2.70;;
22939;SDS011;11636;52.086;5.090;2023-03-29T04:07:56;6.07;;;3.30;;
22939;SDS011;11636;52.086;5.090;2023-03-29T04:10:30;7.85;;;3.72;;
22939;SDS011;11636;52.086;5.090;2023-03-29T04:13:03;6.38;;;3.65;;
22939;SDS011;11636;52.086;5.090;2023-03-29T04:15:39;5.75;;;3.20;;
22939;SDS011;11636;52.086;5.090;2023-03-29T04:18:19;6.10;;;3.00;;
22939;SDS011;11636;52.086;5.090;2023-03-29T04:20:53;5.20;;;3.17;;
22939;SDS011;11636;52.086;5.090;2023-03-29T04:23:20;6.30;;;3.03;;
22939;SDS011;11636;52.086;5.090;2023-03-29T04:25:54;7.20;;;3.63;;
22939;SDS011;11636;52.086;5.090;2023-03-29T04:28:21;5.95;;;3.13;;
22939;SDS011;11636;52.086;5.090;2023-03-29T04:30:55;5.38;;;3.13;;
22939;SDS011;11636;52.086;5.090;2023-03-29T04:33:22;6.43;;;3.20;;
22939;SDS011;11636;52.086;5.090;2023-03-29T04:35:55;5.57;;;3.10;;
22939;SDS011;11636;52.086;5.090;2023-03-29T04:38:23;5.95;;;3.30;;
22939;SDS011;11636;52.086;5.090;2023-03-29T04:41:01;5.43;;;2.80;;
22939;SDS011;11636;52.086;5.090;2023-03-29T04:43:38;4.80;;;2.88;;
22939;SDS011;11636;52.086;5.090;2023-03-29T04:46:06;4.70;;;2.80;;
22939;SDS011;11636;52.086;5.090;2023-03-29T04:48:41;4.47;;;2.65;;
22939;SDS011;11636;52.086;5.090;2023-03-29T04:51:08;5.75;;;3.22;;
22939;SDS011;11636;52.086;5.090;2023-03-29T04:53:42;4.85;;;2.90;;
22939;SDS011;11636;52.086;5.090;2023-03-29T04:56:16;6.05;;;2.88;;
22939;SDS011;11636;52.086;5.090;2023-03-29T04:58:50;6.47;;;3.90;;
22939;SDS011;11636;52.086;5.090;2023-03-29T05:01:17;4.55;;;2.60;;
22939;SDS011;11636;52.086;5.090;2023-03-29T05:03:50;4.60;;;2.63;;
22939;SDS011;11636;52.086;5.090;2023-03-29T05:06:18;5.22;;;3.63;;
22939;SDS011;11636;52.086;5.090;2023-03-29T05:08:51;4.97;;;3.00;;
22939;SDS011;11636;52.086;5.090;2023-03-29T05:11:18;6.85;;;3.70;;
22939;SDS011;11636;52.086;5.090;2023-03-29T05:13:45;5.00;;;3.08;;
22939;SDS011;11636;52.086;5.090;2023-03-29T05:16:25;5.25;;;3.25;;
22939;SDS011;11636;52.086;5.090;2023-03-29T05:18:55;5.55;;;3.17;;
22939;SDS011;11636;52.086;5.090;2023-03-29T05:21:29;4.95;;;3.10;;
22939;SDS011;11636;52.086;5.090;2023-03-29T05:23:56;6.13;;;3.95;;
22939;SDS011;11636;52.086;5.090;2023-03-29T05:26:22;5.70;;;3.58;;
22939;SDS011;11636;52.086;5.090;2023-03-29T05:28:56;5.28;;;3.28;;
22939;SDS011;11636;52.086;5.090;2023-03-29T05:31:29;6.90;;;3.20;;
22939;SDS011;11636;52.086;5.090;2023-03-29T05:33:56;4.90;;;3.08;;
22939;SDS011;11636;52.086;5.090;2023-03-29T05:36:30;5.00;;;3.28;;
22939;SDS011;11636;52.086;5.090;2023-03-29T05:39:04;6.88;;;3.70;;
22939;SDS011;11636;52.086;5.090;2023-03-29T05:41:32;5.97;;;3.47;;
22939;SDS011;11636;52.086;5.090;2023-03-29T05:44:06;5.28;;;3.30;;
22939;SDS011;11636;52.086;5.090;2023-03-29T05:46:33;5.70;;;3.47;;
22939;SDS011;11636;52.086;5.090;2023-03-29T05:49:07;6.03;;;4.03;;
22939;SDS011;11636;52.086;5.090;2023-03-29T05:51:33;8.70;;;4.40;;
22939;SDS011;11636;52.086;5.090;2023-03-29T05:54:07;6.15;;;3.50;;
22939;SDS011;11636;52.086;5.090;2023-03-29T05:56:42;6.00;;;3.90;;
22939;SDS011;11636;52.086;5.090;2023-03-29T05:59:09;5.85;;;3.45;;
22939;SDS011;11636;52.086;5.090;2023-03-29T06:01:36;7.28;;;3.75;;
22939;SDS011;11636;52.086;5.090;2023-03-29T06:04:11;7.53;;;4.63;;
22939;SDS011;11636;52.086;5.090;2023-03-29T06:06:51;6.20;;;3.50;;
22939;SDS011;11636;52.086;5.090;2023-03-29T06:09:20;8.07;;;4.03;;
22939;SDS011;11636;52.086;5.090;2023-03-29T06:11:54;7.90;;;4.57;;
22939;SDS011;11636;52.086;5.090;2023-03-29T06:14:29;7.32;;;3.45;;
22939;SDS011;11636;52.086;5.090;2023-03-29T06:16:58;4.95;;;3.33;;
22939;SDS011;11636;52.086;5.090;2023-03-29T06:19:27;9.98;;;4.55;;
22939;SDS011;11636;52.086;5.090;2023-03-29T06:22:01;6.68;;;3.72;;
22939;SDS011;11636;52.086;5.090;2023-03-29T06:24:28;5.40;;;3.65;;
22939;SDS011;11636;52.086;5.090;2023-03-29T06:27:02;6.60;;;4.25;;
22939;SDS011;11636;52.086;5.090;2023-03-29T06:29:35;9.10;;;5.10;;
22939;SDS011;11636;52.086;5.090;2023-03-29T06:32:02;7.20;;;4.38;;
22939;SDS011;11636;52.086;5.090;2023-03-29T06:34:29;9.48;;;5.22;;
22939;SDS011;11636;52.086;5.090;2023-03-29T06:37:03;7.28;;;5.00;;
22939;SDS011;11636;52.086;5.090;2023-03-29T06:39:31;7.75;;;5.00;;
22939;SDS011;11636;52.086;5.090;2023-03-29T06:42:04;9.40;;;5.47;;
22939;SDS011;11636;52.086;5.090;2023-03-29T06:44:47;7.18;;;4.43;;
22939;SDS011;11636;52.086;5.090;2023-03-29T06:47:21;8.82;;;5.28;;
22939;SDS011;11636;52.086;5.090;2023-03-29T06:49:56;7.65;;;4.72;;
22939;SDS011;11636;52.086;5.090;2023-03-29T06:52:29;12.48;;;5.25;;
22939;SDS011;11636;52.086;5.090;2023-03-29T06:55:02;9.02;;;5.22;;
22939;SDS011;11636;52.086;5.090;2023-03-29T06:57:32;11.55;;;5.72;;
22939;SDS011;11636;52.086;5.090;2023-03-29T06:59:59;7.63;;;4.60;;
22939;SDS011;11636;52.086;5.090;2023-03-29T07:02:33;8.65;;;4.80;;
22939;SDS011;11636;52.086;5.090;2023-03-29T07:05:07;8.32;;;5.10;;
22939;SDS011;11636;52.086;5.090;2023-03-29T07:07:45;9.05;;;4.90;;
22939;SDS011;11636;52.086;5.090;2023-03-29T07:10:23;10.57;;;5.63;;
22939;SDS011;11636;52.086;5.090;2023-03-29T07:13:04;9.45;;;5.00;;
22939;SDS011;11636;52.086;5.090;2023-03-29T07:15:33;8.93;;;5.00;;
22939;SDS011;11636;52.086;5.090;2023-03-29T07:18:08;7.85;;;5.00;;
22939;SDS011;11636;52.086;5.090;2023-03-29T07:20:35;7.43;;;4.43;;
22939;SDS011;11636;52.086;5.090;2023-03-29T07:23:05;7.93;;;4.82;;
22939;SDS011;11636;52.086;5.090;2023-03-29T07:25:39;9.75;;;5.22;;
22939;SDS011;11636;52.086;5.090;2023-03-29T07:28:12;9.38;;;5.32;;
22939;SDS011;11636;52.086;5.090;2023-03-29T07:30:41;9.10;;;5.97;;
22939;SDS011;11636;52.086;5.090;2023-03-29T07:33:13;8.60;;;4.83;;
22939;SDS011;11636;52.086;5.090;2023-03-29T07:35:46;9.40;;;5.68;;
22939;SDS011;11636;52.086;5.090;2023-03-29T07:38:13;8.52;;;5.63;;
22939;SDS011;11636;52.086;5.090;2023-03-29T07:40:40;10.75;;;6.32;;
22939;SDS011;11636;52.086;5.090;2023-03-29T07:43:14;10.52;;;5.95;;
22939;SDS011;11636;52.086;5.090;2023-03-29T07:45:49;10.18;;;5.60;;
22939;SDS011;11636;52.086;5.090;2023-03-29T07:48:24;8.95;;;5.40;;
22939;SDS011;11636;52.086;5.090;2023-03-29T07:50:58;9.30;;;6.13;;
22939;SDS011;11636;52.086;5.090;2023-03-29T07:53:25;9.90;;;5.97;;
22939;SDS011;11636;52.086;5.090;2023-03-29T07:56:01;8.05;;;5.50;;
22939;SDS011;11636;52.086;5.090;2023-03-29T07:58:28;8.73;;;5.93;;
22939;SDS011;11636;52.086;5.090;2023-03-29T08:01:02;8.93;;;5.43;;
22939;SDS011;11636;52.086;5.090;2023-03-29T08:03:30;10.25;;;5.88;;
22939;SDS011;11636;52.086;5.090;2023-03-29T08:06:00;8.48;;;5.45;;
22939;SDS011;11636;52.086;5.090;2023-03-29T08:08:34;9.77;;;5.50;;
22939;SDS011;11636;52.086;5.090;2023-03-29T08:11:01;8.52;;;5.20;;
22939;SDS011;11636;52.086;5.090;2023-03-29T08:13:35;9.38;;;5.93;;
22939;SDS011;11636;52.086;5.090;2023-03-29T08:16:02;10.85;;;6.28;;
22939;SDS011;11636;52.086;5.090;2023-03-29T08:18:31;14.45;;;8.13;;
22939;SDS011;11636;52.086;5.090;2023-03-29T08:21:04;16.73;;;8.02;;
22939;SDS011;11636;52.086;5.090;2023-03-29T08:23:38;10.73;;;6.47;;
22939;SDS011;11636;52.086;5.090;2023-03-29T08:26:05;9.45;;;5.75;;
22939;SDS011;11636;52.086;5.090;2023-03-29T08:28:36;12.02;;;7.07;;
22939;SDS011;11636;52.086;5.090;2023-03-29T08:31:10;15.05;;;8.27;;
22939;SDS011;11636;52.086;5.090;2023-03-29T08:33:38;12.27;;;7.70;;
22939;SDS011;11636;52.086;5.090;2023-03-29T08:36:05;11.68;;;7.60;;
22939;SDS011;11636;52.086;5.090;2023-03-29T08:38:43;10.55;;;6.88;;
22939;SDS011;11636;52.086;5.090;2023-03-29T08:41:20;10.70;;;7.40;;
22939;SDS011;11636;52.086;5.090;2023-03-29T08:47:22;12.48;;;7.70;;
22939;SDS011;11636;52.086;5.090;2023-03-29T08:50:07;9.60;;;6.88;;
22939;SDS011;11636;52.086;5.090;2023-03-29T08:52:38;12.85;;;8.35;;
22939;SDS011;11636;52.086;5.090;2023-03-29T08:55:23;14.98;;;7.88;;
22939;SDS011;11636;52.086;5.090;2023-03-29T08:57:57;17.02;;;8.50;;
22939;SDS011;11636;52.086;5.090;2023-03-29T09:00:35;13.13;;;8.13;;
22939;SDS011;11636;52.086;5.090;2023-03-29T09:03:26;11.57;;;7.03;;
22939;SDS011;11636;52.086;5.090;2023-03-29T09:06:11;11.75;;;7.68;;
22939;SDS011;11636;52.086;5.090;2023-03-29T09:08:40;12.00;;;7.57;;
22939;SDS011;11636;52.086;5.090;2023-03-29T09:19:48;12.10;;;7.70;;
22939;SDS011;11636;52.086;5.090;2023-03-29T09:31:25;13.48;;;8.88;;
22939;SDS011;11636;52.086;5.090;2023-03-29T09:34:08;12.30;;;8.73;;
22939;SDS011;11636;52.086;5.090;2023-03-29T09:36:48;16.35;;;10.45;;
22939;SDS011;11636;52.086;5.090;2023-03-29T09:39:25;16.05;;;9.82;;
22939;SDS011;11636;52.086;5.090;2023-03-29T09:41:54;17.48;;;9.98;;
22939;SDS011;11636;52.086;5.090;2023-03-29T09:44:34;13.82;;;9.10;;
22939;SDS011;11636;52.086;5.090;2023-03-29T09:47:30;14.40;;;9.52;;
22939;SDS011;11636;52.086;5.090;2023-03-29T09:50:14;17.33;;;11.35;;
22939;SDS011;11636;52.086;5.090;2023-03-29T09:52:57;16.08;;;10.32;;
22939;SDS011;11636;52.086;5.090;2023-03-29T09:55:31;17.95;;;10.77;;
22939;SDS011;11636;52.086;5.090;2023-03-29T09:58:09;14.60;;;10.05;;
22939;SDS011;11636;52.086;5.090;2023-03-29T10:00:47;16.17;;;10.52;;
22939;SDS011;11636;52.086;5.090;2023-03-29T10:03:19;14.02;;;9.80;;
22939;SDS011;11636;52.086;5.090;2023-03-29T10:05:55;17.33;;;11.40;;
22939;SDS011;11636;52.086;5.090;2023-03-29T10:08:41;16.50;;;10.68;;
22939;SDS011;11636;52.086;5.090;2023-03-29T10:11:19;14.88;;;10.23;;
22939;SDS011;11636;52.086;5.090;2023-03-29T10:13:57;14.98;;;9.70;;
22939;SDS011;11636;52.086;5.090;2023-03-29T10:16:28;15.38;;;11.07;;
22939;SDS011;11636;52.086;5.090;2023-03-29T10:19:17;13.85;;;9.48;;
22939;SDS011;11636;52.086;5.090;2023-03-29T10:21:57;11.98;;;8.90;;
22939;SDS011;11636;52.086;5.090;2023-03-29T10:24:32;14.90;;;9.73;;
22939;SDS011;11636;52.086;5.090;2023-03-29T10:27:01;14.88;;;10.30;;
22939;SDS011;11636;52.086;5.090;2023-03-29T10:29:37;13.70;;;9.88;;
22939;SDS011;11636;52.086;5.090;2023-03-29T10:32:14;14.63;;;9.65;;
22939;SDS011;11636;52.086;5.090;2023-03-29T10:35:06;16.38;;;10.52;;
22939;SDS011;11636;52.086;5.090;2023-03-29T10:37:50;15.88;;;10.95;;
22939;SDS011;11636;52.086;5.090;2023-03-29T10:40:27;16.10;;;10.18;;
22939;SDS011;11636;52.086;5.090;2023-03-29T10:48:48;17.13;;;10.80;;
22939;SDS011;11636;52.086;5.090;2023-03-29T10:51:23;13.43;;;9.02;;
22939;SDS011;11636;52.086;5.090;2023-03-29T10:53:53;10.98;;;8.50;;
22939;SDS011;11636;52.086;5.090;2023-03-29T11:07:26;12.65;;;10.00;;
22939;SDS011;11636;52.086;5.090;2023-03-29T11:13:23;10.93;;;7.80;;
22939;SDS011;11636;52.086;5.090;2023-03-29T11:16:40;10.35;;;7.43;;
22939;SDS011;11636;52.086;5.090;2023-03-29T11:22:40;8.27;;;6.13;;
22939;SDS011;11636;52.086;5.090;2023-03-29T11:25:24;9.10;;;6.53;;
22939;SDS011;11636;52.086;5.090;2023-03-29T11:42:06;16.00;;;12.48;;
22939;SDS011;11636;52.086;5.090;2023-03-29T11:44:39;14.15;;;12.27;;
22939;SDS011;11636;52.086;5.090;2023-03-29T11:49:50;18.13;;;13.10;;
22939;SDS011;11636;52.086;5.090;2023-03-29T11:52:31;15.75;;;11.80;;
22939;SDS011;11636;52.086;5.090;2023-03-29T11:55:12;13.90;;;10.38;;
22939;SDS011;11636;52.086;5.090;2023-03-29T11:57:57;11.18;;;9.27;;
22939;SDS011;11636;52.086;5.090;2023-03-29T12:00:47;9.52;;;7.72;;
22939;SDS011;11636;52.086;5.090;2023-03-29T12:03:35;14.50;;;10.68;;
22939;SDS011;11636;52.086;5.090;2023-03-29T12:06:26;14.10;;;11.75;;
22939;SDS011;11636;52.086;5.090;2023-03-29T12:12:00;14.75;;;11.45;;
22939;SDS011;11636;52.086;5.090;2023-03-29T12:15:39;12.60;;;10.93;;
22939;SDS011;11636;52.086;5.090;2023-03-29T12:18:06;15.98;;;12.23;;
22939;SDS011;11636;52.086;5.090;2023-03-29T12:20:54;13.80;;;10.63;;
22939;SDS011;11636;52.086;5.090;2023-03-29T12:23:31;18.85;;;12.55;;
22939;SDS011;11636;52.086;5.090;2023-03-29T12:26:11;15.00;;;12.85;;
22939;SDS011;11636;52.086;5.090;2023-03-29T12:41:09;13.15;;;10.77;;
22939;SDS011;11636;52.086;5.090;2023-03-29T12:43:49;13.35;;;10.75;;
22939;SDS011;11636;52.086;5.090;2023-03-29T12:46:24;14.38;;;9.75;;
22939;SDS011;11636;52.086;5.090;2023-03-29T12:48:56;12.48;;;8.65;;
22939;SDS011;11636;52.086;5.090;2023-03-29T12:51:38;14.48;;;9.60;;
22939;SDS011;11636;52.086;5.090;2023-03-29T12:54:14;13.98;;;9.80;;
22939;SDS011;11636;52.086;5.090;2023-03-29T12:56:55;14.55;;;9.70;;
22939;SDS011;11636;52.086;5.090;2023-03-29T12:59:37;11.40;;;8.32;;
22939;SDS011;11636;52.086;5.090;2023-03-29T13:04:51;12.82;;;8.90;;
22939;SDS011;11636;52.086;5.090;2023-03-29T13:09:59;13.15;;;8.60;;
22939;SDS011;11636;52.086;5.090;2023-03-29T13:12:35;12.35;;;8.75;;
22939;SDS011;11636;52.086;5.090;2023-03-29T13:23:55;10.15;;;8.27;;
22939;SDS011;11636;52.086;5.090;2023-03-29T13:32:02;12.77;;;9.55;;
22939;SDS011;11636;52.086;5.090;2023-03-29T13:34:45;17.10;;;10.52;;
22939;SDS011;11636;52.086;5.090;2023-03-29T13:45:44;12.23;;;9.02;;
22939;SDS011;11636;52.086;5.090;2023-03-29T13:51:04;12.90;;;8.82;;
22939;SDS011;11636;52.086;5.090;2023-03-29T14:02:42;12.13;;;10.18;;
22939;SDS011;11636;52.086;5.090;2023-03-29T14:05:26;11.70;;;9.73;;
22939;SDS011;11636;52.086;5.090;2023-03-29T14:13:24;9.82;;;8.23;;
22939;SDS011;11636;52.086;5.090;2023-03-29T14:15:58;12.07;;;9.88;;
22939;SDS011;11636;52.086;5.090;2023-03-29T14:18:36;10.38;;;8.40;;
22939;SDS011;11636;52.086;5.090;2023-03-29T14:21:06;11.52;;;8.98;;
22939;SDS011;11636;52.086;5.090;2023-03-29T14:23:42;11.95;;;8.68;;
22939;SDS011;11636;52.086;5.090;2023-03-29T14:26:28;9.15;;;7.47;;
22939;SDS011;11636;52.086;5.090;2023-03-29T14:28:57;11.63;;;8.82;;
22939;SDS011;11636;52.086;5.090;2023-03-29T14:31:34;12.90;;;10.32;;
22939;SDS011;11636;52.086;5.090;2023-03-29T14:34:03;11.60;;;9.65;;
22939;SDS011;11636;52.086;5.090;2023-03-29T14:36:39;12.27;;;10.85;;
22939;SDS011;11636;52.086;5.090;2023-03-29T14:39:17;10.10;;;9.00;;
22939;SDS011;11636;52.086;5.090;2023-03-29T14:41:54;11.60;;;9.45;;
22939;SDS011;11636;52.086;5.090;2023-03-29T14:44:25;8.25;;;6.70;;
22939;SDS011;11636;52.086;5.090;2023-03-29T14:47:02;8.70;;;7.63;;
22939;SDS011;11636;52.086;5.090;2023-03-29T14:49:30;10.15;;;7.90;;
22939;SDS011;11636;52.086;5.090;2023-03-29T14:52:04;7.97;;;7.18;;
22939;SDS011;11636;52.086;5.090;2023-03-29T14:54:33;8.85;;;7.47;;
22939;SDS011;11636;52.086;5.090;2023-03-29T14:57:04;9.13;;;7.10;;
22939;SDS011;11636;52.086;5.090;2023-03-29T14:59:41;6.68;;;5.80;;
22939;SDS011;11636;52.086;5.090;2023-03-29T15:02:28;7.68;;;6.43;;
22939;SDS011;11636;52.086;5.090;2023-03-29T15:05:04;7.70;;;6.20;;
22939;SDS011;11636;52.086;5.090;2023-03-29T15:07:45;8.27;;;6.80;;
22939;SDS011;11636;52.086;5.090;2023-03-29T15:10:19;7.82;;;5.28;;
22939;SDS011;11636;52.086;5.090;2023-03-29T15:12:46;5.97;;;4.90;;
22939;SDS011;11636;52.086;5.090;2023-03-29T15:15:20;7.00;;;5.60;;
22939;SDS011;11636;52.086;5.090;2023-03-29T15:17:50;10.30;;;6.90;;
22939;SDS011;11636;52.086;5.090;2023-03-29T15:20:25;8.13;;;6.40;;
22939;SDS011;11636;52.086;5.090;2023-03-29T15:25:47;7.35;;;5.13;;
22939;SDS011;11636;52.086;5.090;2023-03-29T15:28:29;5.97;;;3.95;;
22939;SDS011;11636;52.086;5.090;2023-03-29T15:31:12;5.35;;;4.15;;
22939;SDS011;11636;52.086;5.090;2023-03-29T15:33:42;4.72;;;3.45;;
22939;SDS011;11636;52.086;5.090;2023-03-29T15:36:16;7.97;;;5.93;;
22939;SDS011;11636;52.086;5.090;2023-03-29T15:38:43;6.90;;;5.07;;
22939;SDS011;11636;52.086;5.090;2023-03-29T15:41:24;6.35;;;5.30;;
22939;SDS011;11636;52.086;5.090;2023-03-29T15:43:59;4.82;;;3.30;;
22939;SDS011;11636;52.086;5.090;2023-03-29T15:46:33;8.52;;;5.30;;
22939;SDS011;11636;52.086;5.090;2023-03-29T15:49:00;7.35;;;5.30;;
22939;SDS011;11636;52.086;5.090;2023-03-29T15:51:36;8.05;;;4.97;;
22939;SDS011;11636;52.086;5.090;2023-03-29T15:54:02;5.38;;;3.80;;
22939;SDS011;11636;52.086;5.090;2023-03-29T15:56:36;8.68;;;7.07;;
22939;SDS011;11636;52.086;5.090;2023-03-29T15:59:18;5.75;;;4.95;;
22939;SDS011;11636;52.086;5.090;2023-03-29T16:01:55;6.97;;;5.43;;
22939;SDS011;11636;52.086;5.090;2023-03-29T16:04:29;7.18;;;5.28;;
22939;SDS011;11636;52.086;5.090;2023-03-29T16:07:05;6.47;;;5.15;;
22939;SDS011;11636;52.086;5.090;2023-03-29T16:09:38;5.32;;;4.65;;
22939;SDS011;11636;52.086;5.090;2023-03-29T16:12:12;5.55;;;4.70;;
22939;SDS011;11636;52.086;5.090;2023-03-29T16:14:47;5.65;;;4.00;;
22939;SDS011;11636;52.086;5.090;2023-03-29T16:17:14;5.53;;;4.43;;
22939;SDS011;11636;52.086;5.090;2023-03-29T16:19:47;4.90;;;3.83;;
22939;SDS011;11636;52.086;5.090;2023-03-29T16:22:14;5.90;;;3.20;;
22939;SDS011;11636;52.086;5.090;2023-03-29T16:24:47;5.65;;;3.38;;
22939;SDS011;11636;52.086;5.090;2023-03-29T16:27:14;5.10;;;3.30;;
22939;SDS011;11636;52.086;5.090;2023-03-29T16:29:49;5.07;;;3.40;;
22939;SDS011;11636;52.086;5.090;2023-03-29T16:32:16;6.30;;;3.55;;
22939;SDS011;11636;52.086;5.090;2023-03-29T16:34:43;4.10;;;3.10;;
22939;SDS011;11636;52.086;5.090;2023-03-29T16:37:16;3.75;;;2.72;;
22939;SDS011;11636;52.086;5.090;2023-03-29T16:39:49;4.15;;;2.63;;
22939;SDS011;11636;52.086;5.090;2023-03-29T16:42:22;4.07;;;2.80;;
22939;SDS011;11636;52.086;5.090;2023-03-29T16:44:49;3.63;;;2.38;;
22939;SDS011;11636;52.086;5.090;2023-03-29T16:47:22;5.53;;;3.15;;
22939;SDS011;11636;52.086;5.090;2023-03-29T16:49:55;4.82;;;2.85;;
22939;SDS011;11636;52.086;5.090;2023-03-29T16:52:28;4.38;;;2.83;;
22939;SDS011;11636;52.086;5.090;2023-03-29T16:54:56;4.07;;;2.58;;
22939;SDS011;11636;52.086;5.090;2023-03-29T16:57:23;6.35;;;3.40;;
22939;SDS011;11636;52.086;5.090;2023-03-29T16:59:58;3.85;;;2.30;;
22939;SDS011;11636;52.086;5.090;2023-03-29T17:02:25;4.30;;;2.70;;
22939;SDS011;11636;52.086;5.090;2023-03-29T17:04:52;6.88;;;3.35;;
22939;SDS011;11636;52.086;5.090;2023-03-29T17:07:25;4.10;;;2.67;;
22939;SDS011;11636;52.086;5.090;2023-03-29T17:09:59;3.67;;;2.60;;
22939;SDS011;11636;52.086;5.090;2023-03-29T17:12:29;4.75;;;2.50;;
22939;SDS011;11636;52.086;5.090;2023-03-29T17:15:04;5.72;;;3.42;;
22939;SDS011;11636;52.086;5.090;2023-03-29T17:17:33;3.85;;;2.50;;
22939;SDS011;11636;52.086;5.090;2023-03-29T17:20:06;3.70;;;2.30;;
22939;SDS011;11636;52.086;5.090;2023-03-29T17:22:43;3.70;;;2.13;;
22939;SDS011;11636;52.086;5.090;2023-03-29T17:25:17;5.50;;;2.70;;
22939;SDS011;11636;52.086;5.090;2023-03-29T17:27:45;3.35;;;2.25;;
22939;SDS011;11636;52.086;5.090;2023-03-29T17:30:19;4.88;;;2.33;;
22939;SDS011;11636;52.086;5.090;2023-03-29T17:32:53;4.10;;;2.60;;
22939;SDS011;11636;52.086;5.090;2023-03-29T17:35:26;4.53;;;2.55;;
22939;SDS011;11636;52.086;5.090;2023-03-29T17:37:53;5.07;;;2.72;;
22939;SDS011;11636;52.086;5.090;2023-03-29T17:40:27;4.85;;;2.60;;
22939;SDS011;11636;52.086;5.090;2023-03-29T17:43:00;5.88;;;3.00;;
22939;SDS011;11636;52.086;5.090;2023-03-29T17:45:33;4.82;;;3.10;;
22939;SDS011;11636;52.086;5.090;2023-03-29T17:48:08;3.67;;;2.38;;
22939;SDS011;11636;52.086;5.090;2023-03-29T17:50:35;4.88;;;3.10;;
22939;SDS011;11636;52.086;5.090;2023-03-29T17:53:09;3.83;;;2.60;;